createdAt,value
2022-09-22T00:01:23.949Z,4.20
2022-09-22T00:03:52.944Z,6.80
2022-09-22T00:06:24.449Z,6.30
2022-09-22T00:08:53.697Z,4.32
2022-09-22T00:11:28.361Z,4.10
2022-09-22T00:14:01.397Z,3.55
2022-09-22T00:16:34.349Z,5.90
2022-09-22T00:19:00.720Z,3.92
2022-09-22T00:21:27.924Z,5.28
2022-09-22T00:23:55.176Z,7.28
2022-09-22T00:26:23.277Z,5.50
2022-09-22T00:28:51.641Z,4.03
2022-09-22T00:31:24.375Z,4.07
2022-09-22T00:33:52.716Z,3.78
2022-09-22T00:36:21.671Z,8.27
2022-09-22T00:38:51.238Z,5.38
2022-09-22T00:41:21.226Z,4.38
2022-09-22T00:43:50.332Z,3.65
2022-09-22T00:46:22.568Z,5.40
2022-09-22T00:48:53.669Z,3.65
2022-09-22T00:51:25.079Z,4.05
2022-09-22T00:56:36.644Z,5.07
2022-09-22T00:59:07.944Z,5.28
2022-09-22T01:04:03.877Z,5.68
2022-09-22T01:06:30.932Z,4.07
2022-09-22T01:08:58.205Z,5.35
2022-09-22T01:11:26.211Z,6.05
2022-09-22T01:14:23.946Z,4.60
2022-09-22T01:16:56.275Z,3.95
2022-09-22T01:19:51.480Z,5.28
2022-09-22T01:22:55.687Z,7.35
2022-09-22T01:25:50.047Z,4.40
2022-09-22T01:28:22.333Z,5.97
2022-09-22T01:31:04.756Z,4.32
2022-09-22T01:34:02.020Z,4.50
2022-09-22T01:36:54.682Z,4.75
2022-09-22T01:40:10.532Z,5.35
2022-09-22T01:42:44.207Z,3.38
2022-09-22T01:45:17.824Z,6.70
2022-09-22T01:47:53.346Z,4.70
2022-09-22T01:50:51.325Z,6.60
2022-09-22T01:53:22.317Z,6.78
2022-09-22T01:55:55.115Z,4.80
2022-09-22T01:58:28.955Z,6.68
2022-09-22T02:01:02.448Z,5.30
2022-09-22T02:04:11.541Z,13.07
2022-09-22T02:06:48.832Z,12.75
2022-09-22T02:09:21.284Z,16.13
2022-09-22T02:11:48.877Z,18.65
2022-09-22T02:14:16.047Z,20.60
2022-09-22T02:16:42.464Z,25.10
2022-09-22T02:19:18.720Z,21.08
2022-09-22T02:21:47.811Z,18.52
2022-09-22T02:24:29.152Z,14.25
2022-09-22T02:26:57.798Z,14.77
2022-09-22T02:29:29.225Z,11.00
2022-09-22T02:34:23.341Z,10.25
2022-09-22T02:37:03.354Z,7.85
2022-09-22T02:39:49.729Z,10.30
2022-09-22T02:42:39.799Z,10.52
2022-09-22T02:45:19.436Z,7.35
2022-09-22T02:47:52.083Z,7.43
2022-09-22T02:50:22.228Z,8.10
2022-09-22T02:52:52.820Z,7.25
2022-09-22T02:55:19.846Z,6.95
2022-09-22T02:57:46.221Z,5.82
2022-09-22T03:00:13.080Z,10.63
2022-09-22T03:02:39.547Z,7.80
2022-09-22T03:05:06.525Z,6.82
2022-09-22T03:07:32.932Z,7.85
2022-09-22T03:09:59.431Z,7.03
2022-09-22T03:12:25.845Z,6.85
2022-09-22T03:14:52.276Z,6.53
2022-09-22T03:17:18.657Z,8.88
2022-09-22T03:19:45.023Z,4.97
2022-09-22T03:22:11.392Z,6.97
2022-09-22T03:24:37.733Z,6.35
2022-09-22T03:27:04.158Z,5.53
2022-09-22T03:29:30.516Z,8.32
2022-09-22T03:31:56.836Z,7.28
2022-09-22T03:34:23.167Z,5.93
2022-09-22T03:36:49.979Z,5.35
2022-09-22T03:39:16.382Z,6.13
2022-09-22T03:41:42.747Z,5.78
2022-09-22T03:44:09.165Z,5.32
2022-09-22T03:46:35.524Z,4.97
2022-09-22T03:49:03.170Z,6.97
2022-09-22T03:51:30.000Z,9.23
2022-09-22T03:53:56.393Z,8.75
2022-09-22T03:56:22.734Z,6.55
2022-09-22T03:58:49.842Z,8.63
2022-09-22T04:01:16.332Z,8.80
2022-09-22T04:03:42.833Z,6.28
2022-09-22T04:06:09.674Z,7.50
2022-09-22T04:08:36.810Z,6.97
2022-09-22T04:11:04.228Z,7.88
2022-09-22T04:13:30.842Z,6.80
2022-09-22T04:15:57.196Z,5.78
2022-09-22T04:18:24.090Z,8.10
2022-09-22T04:20:51.296Z,7.53
2022-09-22T04:23:17.656Z,9.80
2022-09-22T04:25:44.144Z,6.45
2022-09-22T04:28:10.605Z,6.75
2022-09-22T04:30:37.461Z,7.22
2022-09-22T04:33:04.501Z,8.43
2022-09-22T04:35:30.998Z,7.50
2022-09-22T04:37:58.035Z,7.82
2022-09-22T04:40:25.212Z,10.13
2022-09-22T04:42:51.750Z,6.88
2022-09-22T04:45:18.178Z,6.45
2022-09-22T04:47:46.052Z,9.73
2022-09-22T04:50:12.890Z,9.68
2022-09-22T04:52:39.392Z,5.78
2022-09-22T04:55:06.379Z,9.10
2022-09-22T04:57:32.732Z,11.27
2022-09-22T04:59:59.090Z,10.75
2022-09-22T05:02:25.445Z,11.07
2022-09-22T05:04:51.797Z,13.45
2022-09-22T05:07:18.177Z,10.90
2022-09-22T05:09:44.593Z,10.30
2022-09-22T05:12:10.919Z,13.27
2022-09-22T05:14:37.324Z,10.40
2022-09-22T05:17:04.457Z,14.45
2022-09-22T05:19:30.794Z,20.33
2022-09-22T05:21:57.214Z,18.25
2022-09-22T05:24:23.636Z,23.88
2022-09-22T05:26:50.286Z,15.20
2022-09-22T05:29:18.186Z,14.10
2022-09-22T05:31:45.910Z,15.60
2022-09-22T05:34:13.059Z,15.02
2022-09-22T05:36:39.619Z,13.02
2022-09-22T05:39:06.081Z,15.23
2022-09-22T05:41:32.550Z,13.40
2022-09-22T05:43:58.887Z,13.98
2022-09-22T05:46:25.235Z,11.48
2022-09-22T05:48:51.574Z,10.07
2022-09-22T05:51:17.932Z,10.68
2022-09-22T05:53:44.358Z,11.25
2022-09-22T05:56:10.764Z,15.38
2022-09-22T05:58:37.181Z,13.48
2022-09-22T06:01:04.402Z,12.05
2022-09-22T06:03:30.979Z,14.00
2022-09-22T06:05:57.644Z,15.25
2022-09-22T06:08:24.027Z,14.68
2022-09-22T06:10:51.221Z,12.45
2022-09-22T06:13:17.652Z,11.65
2022-09-22T06:15:46.456Z,12.63
2022-09-22T06:18:15.361Z,12.90
2022-09-22T06:20:42.355Z,12.48
2022-09-22T06:23:08.948Z,10.73
2022-09-22T06:25:35.313Z,9.38
2022-09-22T06:28:06.620Z,12.30
2022-09-22T06:30:35.168Z,8.90
2022-09-22T06:33:01.794Z,9.43
2022-09-22T06:35:37.585Z,10.18
2022-09-22T06:38:13.787Z,8.88
2022-09-22T06:40:40.268Z,7.47
2022-09-22T06:43:11.993Z,7.97
2022-09-22T06:45:39.800Z,7.28
2022-09-22T06:48:10.105Z,6.25
2022-09-22T06:50:37.588Z,13.75
2022-09-22T06:53:07.148Z,6.82
2022-09-22T06:55:34.096Z,8.07
2022-09-22T06:58:02.715Z,8.35
2022-09-22T07:00:34.287Z,7.35
2022-09-22T07:03:22.470Z,9.23
2022-09-22T07:06:00.910Z,10.20
2022-09-22T07:08:29.389Z,13.80
2022-09-22T07:10:58.267Z,8.13
2022-09-22T07:13:26.131Z,8.63
2022-09-22T07:15:52.559Z,14.57
2022-09-22T07:18:18.981Z,9.40
2022-09-22T07:20:45.719Z,8.77
2022-09-22T07:23:18.370Z,6.10
2022-09-22T07:25:56.169Z,5.85
2022-09-22T07:28:28.301Z,7.57
2022-09-22T07:30:58.448Z,5.97
2022-09-22T07:33:25.950Z,8.15
2022-09-22T07:36:01.831Z,14.85
2022-09-22T07:38:34.016Z,11.32
2022-09-22T07:41:01.242Z,10.15
2022-09-22T07:43:28.492Z,9.70
2022-09-22T07:45:57.146Z,10.25
2022-09-22T07:48:37.502Z,5.38
2022-09-22T07:51:14.236Z,8.10
2022-09-22T07:53:42.775Z,9.00
2022-09-22T07:56:12.354Z,6.95
2022-09-22T07:58:51.043Z,8.43
2022-09-22T08:01:19.389Z,9.40
2022-09-22T08:03:47.286Z,8.90
2022-09-22T08:06:16.079Z,16.30
2022-09-22T08:08:48.302Z,5.40
2022-09-22T08:11:17.793Z,7.50
2022-09-22T08:13:56.043Z,7.95
2022-09-22T08:16:24.377Z,6.05
2022-09-22T08:18:54.755Z,14.43
2022-09-22T08:21:21.441Z,7.60
2022-09-22T08:23:49.912Z,5.80
2022-09-22T08:26:16.254Z,6.97
2022-09-22T08:28:42.586Z,6.38
2022-09-22T08:31:13.213Z,8.98
2022-09-22T08:33:40.683Z,9.95
2022-09-22T08:36:07.270Z,6.68
2022-09-22T08:38:34.332Z,4.82
2022-09-22T08:41:13.069Z,5.40
2022-09-22T08:43:50.237Z,5.78
2022-09-22T08:46:16.637Z,7.32
2022-09-22T08:49:06.543Z,8.10
2022-09-22T08:51:52.214Z,4.07
2022-09-22T08:54:27.116Z,5.35
2022-09-22T08:57:28.628Z,5.45
2022-09-22T09:00:12.935Z,6.72
2022-09-22T09:02:48.523Z,4.10
2022-09-22T09:05:39.650Z,3.63
2022-09-22T09:08:25.909Z,4.40
2022-09-22T09:11:09.634Z,4.75
2022-09-22T09:14:17.521Z,6.05
2022-09-22T09:16:53.864Z,3.72
2022-09-22T09:19:32.331Z,5.65
2022-09-22T09:22:11.960Z,6.85
2022-09-22T09:27:39.654Z,3.55
2022-09-22T09:30:14.776Z,5.38
2022-09-22T09:32:54.404Z,7.55
2022-09-22T09:35:26.388Z,3.75
2022-09-22T09:37:58.733Z,3.92
2022-09-22T09:40:25.546Z,3.88
2022-09-22T09:43:04.028Z,9.55
2022-09-22T09:45:53.186Z,3.22
2022-09-22T09:48:46.959Z,4.20
2022-09-22T09:51:14.188Z,7.25
2022-09-22T09:53:46.316Z,2.67
2022-09-22T09:56:27.319Z,6.70
2022-09-22T09:59:21.445Z,7.10
2022-09-22T10:01:50.745Z,2.60
2022-09-22T10:04:19.184Z,6.05
2022-09-22T10:06:46.673Z,4.82
2022-09-22T10:09:24.194Z,2.53
2022-09-22T10:12:03.587Z,3.70
2022-09-22T10:14:33.050Z,3.05
2022-09-22T10:17:00.001Z,7.72
2022-09-22T10:19:30.197Z,3.90
2022-09-22T10:22:16.271Z,4.85
2022-09-22T10:24:53.508Z,3.78
2022-09-22T10:27:21.873Z,3.42
2022-09-22T10:29:51.115Z,2.30
2022-09-22T10:32:17.504Z,2.85
2022-09-22T10:34:51.426Z,4.78
2022-09-22T10:37:24.743Z,3.95
2022-09-22T10:39:53.021Z,3.72
2022-09-22T10:42:32.486Z,5.40
2022-09-22T10:45:19.349Z,4.65
2022-09-22T10:47:58.161Z,3.42
2022-09-22T10:50:58.557Z,4.72
2022-09-22T10:53:27.300Z,6.28
2022-09-22T10:56:13.926Z,3.20
2022-09-22T10:59:10.520Z,2.85
2022-09-22T11:01:57.145Z,2.20
2022-09-22T11:04:40.036Z,3.35
2022-09-22T11:07:46.726Z,3.35
2022-09-22T11:10:50.525Z,2.60
2022-09-22T11:13:43.402Z,4.75
2022-09-22T11:16:27.804Z,5.88
2022-09-22T11:19:13.157Z,2.53
2022-09-22T11:22:00.302Z,3.08
2022-09-22T11:24:46.637Z,5.93
2022-09-22T11:27:24.780Z,6.25
2022-09-22T11:30:22.835Z,3.22
2022-09-22T11:33:24.957Z,2.58
2022-09-22T11:36:15.206Z,4.50
2022-09-22T11:39:13.699Z,2.28
2022-09-22T11:41:47.783Z,6.30
2022-09-22T11:44:29.968Z,5.00
2022-09-22T11:47:20.803Z,4.85
2022-09-22T11:50:18.123Z,3.88
2022-09-22T11:53:03.441Z,6.35
2022-09-22T11:55:43.636Z,3.30
2022-09-22T11:58:15.640Z,5.05
2022-09-22T12:00:53.249Z,3.88
2022-09-22T12:03:26.585Z,3.17
2022-09-22T12:06:05.581Z,4.32
2022-09-22T12:08:37.779Z,3.08
2022-09-22T12:11:06.983Z,3.28
2022-09-22T12:13:34.850Z,4.55
2022-09-22T12:16:41.564Z,3.28
2022-09-22T12:19:31.878Z,3.90
2022-09-22T12:22:27.654Z,4.10
2022-09-22T12:24:53.981Z,5.05
2022-09-22T12:27:26.110Z,4.15
2022-09-22T12:30:02.554Z,6.45
2022-09-22T12:32:50.218Z,7.88
2022-09-22T12:35:30.991Z,4.82
2022-09-22T12:38:01.718Z,6.20
2022-09-22T12:40:35.604Z,4.53
2022-09-22T12:43:02.207Z,3.38
2022-09-22T12:45:38.100Z,3.53
2022-09-22T12:48:13.823Z,5.30
2022-09-22T12:50:42.353Z,3.80
2022-09-22T12:53:20.846Z,5.97
2022-09-22T12:55:48.618Z,5.88
2022-09-22T12:58:21.322Z,6.50
2022-09-22T13:00:50.399Z,4.22
2022-09-22T13:03:37.157Z,5.03
2022-09-22T13:06:23.523Z,5.40
2022-09-22T13:08:52.869Z,3.63
2022-09-22T13:11:20.448Z,5.45
2022-09-22T13:13:48.645Z,6.55
2022-09-22T13:16:15.006Z,7.18
2022-09-22T13:18:50.890Z,7.80
2022-09-22T13:21:18.795Z,10.45
2022-09-22T13:23:54.357Z,4.85
2022-09-22T13:26:35.829Z,4.35
2022-09-22T13:29:22.064Z,2.53
2022-09-22T13:31:52.895Z,3.05
2022-09-22T13:34:30.997Z,2.25
2022-09-22T13:37:02.858Z,2.30
2022-09-22T13:39:35.341Z,2.88
2022-09-22T13:42:31.358Z,3.58
2022-09-22T13:45:03.757Z,3.33
2022-09-22T13:47:30.602Z,6.72
2022-09-22T13:50:03.701Z,3.30
2022-09-22T13:52:32.709Z,2.28
2022-09-22T13:55:14.842Z,2.22
2022-09-22T13:57:41.862Z,4.00
2022-09-22T14:00:17.447Z,2.58
2022-09-22T14:02:45.251Z,2.88
2022-09-22T14:05:21.029Z,2.50
2022-09-22T14:08:07.809Z,3.45
2022-09-22T14:10:34.400Z,4.30
2022-09-22T14:13:00.892Z,2.13
2022-09-22T14:15:39.302Z,2.17
2022-09-22T14:18:15.745Z,3.78
2022-09-22T14:20:44.344Z,2.22
2022-09-22T14:23:26.426Z,2.67
2022-09-22T14:25:52.831Z,1.73
2022-09-22T14:28:29.609Z,2.63
2022-09-22T14:30:56.173Z,2.60
2022-09-22T14:33:25.432Z,3.80
2022-09-22T14:36:00.736Z,2.75
2022-09-22T14:38:29.999Z,3.80
2022-09-22T14:41:02.987Z,2.97
2022-09-22T14:43:41.953Z,7.28
2022-09-22T14:46:28.379Z,2.88
2022-09-22T14:48:55.245Z,3.60
2022-09-22T14:51:24.701Z,5.20
2022-09-22T14:54:01.712Z,11.88
2022-09-22T14:56:32.747Z,8.02
2022-09-22T15:01:50.891Z,3.35
2022-09-22T15:04:24.892Z,2.97
2022-09-22T15:06:56.208Z,2.15
2022-09-22T15:09:26.802Z,3.65
2022-09-22T15:12:00.155Z,4.43
2022-09-22T15:14:41.534Z,2.35
2022-09-22T15:17:59.296Z,4.55
2022-09-22T15:20:36.665Z,3.72
2022-09-22T15:23:03.295Z,4.65
2022-09-22T15:25:29.716Z,11.40
2022-09-22T15:27:56.108Z,47.15
2022-09-22T15:30:22.650Z,13.52
2022-09-22T15:32:49.523Z,24.35
2022-09-22T15:35:17.619Z,32.42
2022-09-22T15:37:49.966Z,7.57
2022-09-22T15:40:21.541Z,13.13
2022-09-22T15:43:11.159Z,13.27
2022-09-22T15:45:37.180Z,3.70
2022-09-22T15:48:03.772Z,3.47
2022-09-22T15:50:30.645Z,6.35
2022-09-22T15:52:57.045Z,9.88
2022-09-22T15:55:24.285Z,3.30
2022-09-22T15:57:54.718Z,3.85
2022-09-22T16:00:27.440Z,3.65
2022-09-22T16:02:54.604Z,3.63
2022-09-22T16:05:21.185Z,3.80
2022-09-22T16:07:52.672Z,4.72
2022-09-22T16:10:25.811Z,5.43
2022-09-22T16:12:52.177Z,4.15
2022-09-22T16:15:18.594Z,4.10
2022-09-22T16:17:46.424Z,5.97
2022-09-22T16:20:16.877Z,6.72
2022-09-22T16:22:45.287Z,6.80
2022-09-22T16:25:12.495Z,6.35
2022-09-22T16:27:38.913Z,13.50
2022-09-22T16:30:05.968Z,4.60
2022-09-22T16:32:36.123Z,6.45
2022-09-22T16:35:03.639Z,17.55
2022-09-22T16:37:30.082Z,37.80
2022-09-22T16:39:56.415Z,12.23
2022-09-22T16:42:23.850Z,12.02
2022-09-22T16:44:50.468Z,18.80
2022-09-22T16:47:22.874Z,5.80
2022-09-22T16:49:51.164Z,7.65
2022-09-22T16:52:19.943Z,8.05
2022-09-22T16:54:46.464Z,4.38
2022-09-22T16:57:12.829Z,6.53
2022-09-22T16:59:39.159Z,7.63
2022-09-22T17:02:05.714Z,5.85
2022-09-22T17:04:32.389Z,4.43
2022-09-22T17:06:58.833Z,10.07
2022-09-22T17:09:25.285Z,7.07
2022-09-22T17:11:52.858Z,6.35
2022-09-22T17:14:24.310Z,3.55
2022-09-22T17:16:53.512Z,3.95
2022-09-22T17:19:23.133Z,4.78
2022-09-22T17:21:51.859Z,6.85
2022-09-22T17:24:19.235Z,5.15
2022-09-22T17:26:50.880Z,7.70
2022-09-22T17:29:24.857Z,7.95
2022-09-22T17:31:56.395Z,6.20
2022-09-22T17:34:24.620Z,6.80
2022-09-22T17:36:52.387Z,6.68
2022-09-22T17:39:18.736Z,6.35
2022-09-22T17:41:48.065Z,7.15
2022-09-22T17:44:19.545Z,6.43
2022-09-22T17:47:24.219Z,7.63
2022-09-22T17:50:08.973Z,6.05
2022-09-22T17:52:53.806Z,5.70
2022-09-22T17:55:22.433Z,9.00
2022-09-22T17:57:50.337Z,6.38
2022-09-22T18:00:20.977Z,8.80
2022-09-22T18:02:49.410Z,4.80
2022-09-22T18:05:17.940Z,9.20
2022-09-22T18:07:44.532Z,5.07
2022-09-22T18:10:16.698Z,8.30
2022-09-22T18:12:44.136Z,7.05
2022-09-22T18:15:13.197Z,9.25
2022-09-22T18:17:41.970Z,7.88
2022-09-22T18:20:14.648Z,8.48
2022-09-22T18:22:42.428Z,6.80
2022-09-22T18:25:10.259Z,9.82
2022-09-22T18:27:38.002Z,6.78
2022-09-22T18:30:05.083Z,11.07
2022-09-22T18:32:31.932Z,10.45
2022-09-22T18:34:58.313Z,9.05
2022-09-22T18:37:25.374Z,10.65
2022-09-22T18:39:51.716Z,10.80
2022-09-22T18:42:19.369Z,13.75
2022-09-22T18:44:47.098Z,10.20
2022-09-22T18:47:16.199Z,16.67
2022-09-22T18:49:43.010Z,31.38
2022-09-22T18:52:10.065Z,30.73
2022-09-22T18:54:39.507Z,21.52
2022-09-22T18:57:06.906Z,27.70
2022-09-22T18:59:33.508Z,18.23
2022-09-22T19:01:59.948Z,11.77
2022-09-22T19:04:26.837Z,11.52
2022-09-22T19:07:13.889Z,11.10
2022-09-22T19:09:40.642Z,12.90
2022-09-22T19:12:09.190Z,10.30
2022-09-22T19:14:38.995Z,13.25
2022-09-22T19:17:07.195Z,8.77
2022-09-22T19:19:36.919Z,10.90
2022-09-22T19:22:08.856Z,14.88
2022-09-22T19:24:36.934Z,10.43
2022-09-22T19:27:04.757Z,9.68
2022-09-22T19:29:32.390Z,8.18
2022-09-22T19:32:00.141Z,7.82
2022-09-22T19:34:27.340Z,8.48
2022-09-22T19:36:55.457Z,6.88
2022-09-22T19:39:22.934Z,9.38
2022-09-22T19:41:50.471Z,7.95
2022-09-22T19:44:20.032Z,8.10
2022-09-22T19:46:47.675Z,9.13
2022-09-22T19:49:15.026Z,5.95
2022-09-22T19:51:42.449Z,8.93
2022-09-22T19:54:09.560Z,13.93
2022-09-22T19:56:35.974Z,5.00
2022-09-22T19:59:03.123Z,7.32
2022-09-22T20:01:35.903Z,6.10
2022-09-22T20:04:03.270Z,7.18
2022-09-22T20:06:29.914Z,8.95
2022-09-22T20:09:02.658Z,6.95
2022-09-22T20:11:49.649Z,9.10
2022-09-22T20:14:22.448Z,7.88
2022-09-22T20:16:56.916Z,7.28
2022-09-22T20:19:25.629Z,6.50
2022-09-22T20:21:54.444Z,7.47
2022-09-22T20:24:22.786Z,8.23
2022-09-22T20:26:49.885Z,6.70
2022-09-22T20:29:17.323Z,7.28
2022-09-22T20:31:43.845Z,6.93
2022-09-22T20:34:15.023Z,8.18
2022-09-22T20:36:43.279Z,7.75
2022-09-22T20:39:14.854Z,5.45
2022-09-22T20:41:42.087Z,7.43
2022-09-22T20:44:14.551Z,8.23
2022-09-22T20:46:42.132Z,11.52
2022-09-22T20:49:12.235Z,9.05
2022-09-22T20:51:38.751Z,8.40
2022-09-22T20:54:05.571Z,8.88
2022-09-22T20:56:34.053Z,10.55
2022-09-22T20:59:01.967Z,7.53
2022-09-22T21:01:28.413Z,7.05
2022-09-22T21:03:55.353Z,8.60
2022-09-22T21:06:22.517Z,6.50
2022-09-22T21:09:07.233Z,5.90
2022-09-22T21:11:33.739Z,6.85
2022-09-22T21:14:03.771Z,5.80
2022-09-22T21:16:30.591Z,9.43
2022-09-22T21:18:57.218Z,6.75
2022-09-22T21:21:23.740Z,7.07
2022-09-22T21:23:50.087Z,6.90
2022-09-22T21:26:18.457Z,6.93
2022-09-22T21:28:46.106Z,7.07
2022-09-22T21:31:14.604Z,7.38
2022-09-22T21:33:41.814Z,7.82
2022-09-22T21:36:13.601Z,7.57
2022-09-22T21:38:41.942Z,7.43
2022-09-22T21:41:11.508Z,9.35
2022-09-22T21:43:38.609Z,7.90
2022-09-22T21:46:08.258Z,5.97
2022-09-22T21:48:38.310Z,9.07
2022-09-22T21:51:10.771Z,6.07
2022-09-22T21:53:39.387Z,7.40
2022-09-22T21:56:08.620Z,5.60
2022-09-22T21:58:36.903Z,7.45
2022-09-22T22:01:08.089Z,6.95
2022-09-22T22:03:35.404Z,8.48
2022-09-22T22:06:18.371Z,6.32
2022-09-22T22:08:49.175Z,8.85
2022-09-22T22:11:22.589Z,7.85
2022-09-22T22:13:52.148Z,5.93
2022-09-22T22:16:21.441Z,7.97
2022-09-22T22:18:48.160Z,6.95
2022-09-22T22:21:20.335Z,9.20
2022-09-22T22:23:48.367Z,10.18
2022-09-22T22:26:19.811Z,9.35
2022-09-22T22:28:47.946Z,9.07
2022-09-22T22:31:16.785Z,7.97
2022-09-22T22:33:43.969Z,15.70
2022-09-22T22:36:13.924Z,14.07
2022-09-22T22:38:41.393Z,11.80
2022-09-22T22:41:13.200Z,13.38
2022-09-22T22:43:40.340Z,12.80
2022-09-22T22:46:08.105Z,14.15
2022-09-22T22:48:36.053Z,14.45
2022-09-22T22:51:12.167Z,13.57
2022-09-22T22:53:38.811Z,18.00
2022-09-22T22:56:07.760Z,12.32
2022-09-22T22:58:36.111Z,13.15
2022-09-22T23:01:12.011Z,22.35
2022-09-22T23:03:41.178Z,20.75
2022-09-22T23:06:13.531Z,19.27
2022-09-22T23:08:41.103Z,16.13
2022-09-22T23:11:11.348Z,17.13
2022-09-22T23:13:40.415Z,20.98
2022-09-22T23:16:09.442Z,16.35
2022-09-22T23:18:38.041Z,20.35
2022-09-22T23:21:06.292Z,21.00
2022-09-22T23:23:33.908Z,17.23
2022-09-22T23:26:01.977Z,19.00
2022-09-22T23:28:31.162Z,17.35
2022-09-22T23:31:03.490Z,20.15
2022-09-22T23:33:30.719Z,19.42
2022-09-22T23:35:59.100Z,16.80
2022-09-22T23:38:27.332Z,18.45
2022-09-22T23:40:55.058Z,18.30
2022-09-22T23:43:22.388Z,16.55
2022-09-22T23:45:49.258Z,21.10
2022-09-22T23:48:16.544Z,13.95
2022-09-22T23:50:47.510Z,18.10
2022-09-22T23:53:15.499Z,16.58
2022-09-22T23:55:42.323Z,17.85
2022-09-22T23:58:09.287Z,17.02
